Flight Track Log - Related Links

Times and Time Zones

All times are in EST time to prevent confusion due to time zone crossing. See the AAY855 flight status page for this flight to view local times or setup timezone preferences in your user account.

Time Position Orientation Groundspeed Altitude Reporting Facility
EST Latitude Longitude Course Direction KTS MPH feet Rate Location/Type
Mon 04:15:46 PM 41.6864 -86.3792 130° Southeast 185 213 2,400  Level Chicago Center
Mon 04:16:48 PM 41.6281 -86.3506 160° South 257 296 5,900 3,242 Climbing Chicago Center
Mon 04:17:50 PM 41.5833 -86.2664 125° Southeast 274 315 9,100 2,516 Climbing Chicago Center
Mon 04:18:52 PM 41.5111 -86.2144 152° Southeast 292 336 11,100 1,403 Climbing Chicago Center
Mon 04:19:54 PM 41.4200 -86.1500 152° Southeast 372 428 12,000 2,081 Climbing Chicago Center
Mon 04:20:56 PM 41.3025 -86.0667 152° Southeast 401 461 15,400 2,516 Climbing Chicago Center
Mon 04:21:00 PM 41.2778 -85.6450 130° Southeast  Level FlightAware Approximate
Mon 04:21:58 PM 41.1947 -86.0089 158° South 428 493 17,200  Level Chicago Center
Mon 04:23:00 PM 41.0811 -85.9742 167° South 425 489 18,800 1,548 Climbing Chicago Center
Mon 04:24:02 PM 40.9603 -85.9569 174° South 437 503 20,400 1,452 Climbing Chicago Center
Mon 04:25:04 PM 40.8353 -85.9400 174° South 452 520 21,800 1,645 Climbing Chicago Center
Mon 04:26:06 PM 40.6839 -85.9108 172° South 459 528 23,800 1,887 Climbing Chicago Center
Mon 04:27:08 PM 40.5683 -85.8858 171° South 470 541 25,700 1,645 Climbing Chicago Center
Mon 04:28:10 PM 40.4431 -85.8625 172° South 458 527 27,200 1,730 Climbing Chicago Center
Mon 04:28:59 PM 40.3442 -85.8517 175° South 449 517 28,900 1,892 Climbing Indianapolis Center
Mon 04:30:01 PM 40.1992 -85.8306 174° South 438 504 30,700 1,500 Climbing Indianapolis Center
Mon 04:31:03 PM 40.0808 -85.8089 172° South 431 496 32,000 629 Climbing Indianapolis Center
Mon 04:32:05 PM 39.9622 -85.7886 173° South 429 494 32,000  Level Indianapolis Center
Mon 04:33:07 PM 39.8461 -85.7944 182° South 417 480 32,000  Level Indianapolis Center
Mon 04:34:09 PM 39.7306 -85.8000 182° South 413 475 32,000  Level Indianapolis Center
Mon 04:35:11 PM 39.6153 -85.8081 183° South 414 476 32,000  Level Indianapolis Center
Mon 04:36:13 PM 39.5006 -85.8122 182° South 410 472 32,000  Level Indianapolis Center
Mon 04:37:15 PM 39.3600 -85.8000 176° South 421 484 32,000 49 Level Indianapolis Center
Mon 04:38:16 PM 39.2397 -85.7769 172° South 431 496 32,100 439 Climbing Indianapolis Center
Mon 04:39:18 PM 39.1228 -85.7600 174° South 425 489 32,900 435 Climbing Indianapolis Center
Mon 04:40:20 PM 39.0086 -85.7597 180° South 411 473 33,000 48 Climbing Indianapolis Center
Mon 04:41:22 PM 38.8939 -85.7475 175° South 414 476 33,000  Level Indianapolis Center
Mon 04:42:24 PM 38.7772 -85.7306 174° South 423 487 33,000  Level Indianapolis Center
Mon 04:43:26 PM 38.6364 -85.7036 172° South 426 490 33,000  Level Indianapolis Center
Mon 04:44:27 PM 38.5164 -85.6797 171° South 430 495 33,000  Level Indianapolis Center
Mon 04:45:29 PM 38.3972 -85.6586 172° South 428 493 33,000  Level Indianapolis Center
Mon 04:46:31 PM 38.2764 -85.6406 173° South 433 498 33,000  Level Indianapolis Center
Mon 04:47:33 PM 38.1550 -85.6175 172° South 437 503 33,000  Level Indianapolis Center
Mon 04:48:34 PM 38.0328 -85.5947 172° South 441 507 33,000  Level Indianapolis Center
Mon 04:49:36 PM 37.9108 -85.5717 172° South 440 506 33,000  Level Indianapolis Center
Mon 04:50:38 PM 37.7897 -85.5503 172° South 436 502 33,000  Level Indianapolis Center
Mon 04:51:39 PM 37.6686 -85.5292 172° South 436 502 33,000  Level Indianapolis Center
Mon 04:52:41 PM 37.5292 -85.5056 172° South 430 495 33,000  Level Indianapolis Center
Mon 04:53:43 PM 37.4089 -85.4844 172° South 434 499 33,000  Level Indianapolis Center
Mon 04:54:44 PM 37.2894 -85.4628 172° South 434 499 33,000  Level Indianapolis Center
Mon 04:55:46 PM 37.1689 -85.4422 172° South 435 501 33,000  Level Indianapolis Center
Mon 04:56:48 PM 37.0492 -85.4197 171° South 435 501 33,000  Level Indianapolis Center
Mon 04:57:49 PM 36.9164 -85.3983 173° South 433 498 33,000  Level Indianapolis Center
Mon 04:58:51 PM 36.7967 -85.3772 172° South 435 501 33,000  Level Indianapolis Center
Mon 04:59:53 PM 36.6767 -85.3569 172° South 433 498 33,000  Level Indianapolis Center
Mon 05:00:55 PM 36.5581 -85.3361 172° South 432 497 33,000  Level Indianapolis Center
Mon 05:01:56 PM 36.4378 -85.3158 172° South 434 499 33,000  Level Indianapolis Center
Mon 05:02:58 PM 36.3192 -85.2953 172° South 433 498 33,000  Level Indianapolis Center
Mon 05:04:00 PM 36.1781 -85.2714 172° South 429 494 33,000  Level Indianapolis Center
Mon 05:05:05 PM 36.0586 -85.2536 173° South 442 509 33,000  Level Atlanta Center
Mon 05:06:05 PM 35.9400 -85.2339 172° South 442 509 33,000  Level Atlanta Center
Mon 05:07:05 PM 35.8192 -85.2142 172° South 442 509 33,000  Level Atlanta Center
Mon 05:08:05 PM 35.6983 -85.1919 172° South 442 509 33,000  Level Atlanta Center
Mon 05:09:05 PM 35.5794 -85.1700 171° South 442 509 33,000  Level Atlanta Center
Mon 05:10:05 PM 35.4586 -85.1506 173° South 442 509 33,000  Level Atlanta Center
Mon 05:11:05 PM 35.3358 -85.1308 173° South 442 509 33,000  Level Atlanta Center
Mon 05:12:05 PM 35.2150 -85.1117 173° South 442 509 33,000  Level Atlanta Center
Mon 05:14:05 PM 34.9733 -85.0706 172° South 442 509 33,000  Level Atlanta Center
Mon 05:15:06 PM 34.8525 -85.0511 172° South 437 503 33,000  Level Atlanta Center
Mon 05:16:05 PM 34.7294 -85.0319 173° South 443 510 33,000  Level Atlanta Center
Mon 05:17:05 PM 34.6064 -85.0128 173° South 443 510 33,000  Level Atlanta Center
Mon 05:18:05 PM 34.4836 -84.9914 172° South 443 510 33,000  Level Atlanta Center
Mon 05:19:05 PM 34.3583 -84.9722 173° South 443 510 33,000  Level Atlanta Center
Mon 05:20:05 PM 34.2356 -84.9508 172° South 443 510 33,000  Level Atlanta Center
Mon 05:21:05 PM 34.1125 -84.9294 172° South 443 510 33,000  Level Atlanta Center
Mon 05:22:05 PM 33.9894 -84.9006 169° South 448 516 33,000  Level Atlanta Center
Mon 05:23:05 PM 33.8667 -84.8644 166° South 448 516 33,000  Level Atlanta Center
Mon 05:24:05 PM 33.7436 -84.8358 169° South 448 516 33,000  Level Atlanta Center
Mon 05:25:05 PM 33.6250 -84.8022 167° South 448 516 33,000  Level Atlanta Center
Mon 05:26:05 PM 33.5081 -84.7764 170° South 448 516 33,000  Level Atlanta Center
Mon 05:27:05 PM 33.3872 -84.7528 171° South 448 516 33,000  Level Atlanta Center
Mon 05:28:05 PM 33.2497 -84.7144 167° South 454 522 33,000  Level Atlanta Center
Mon 05:29:05 PM 33.1331 -84.6839 168° South 446 513 33,000  Level Atlanta Center
Mon 05:30:05 PM 33.0142 -84.6556 169° South 441 507 33,000  Level Atlanta Center
Mon 05:31:06 PM 32.8953 -84.6253 168° South 441 507 33,000  Level Atlanta Center
Mon 05:32:05 PM 32.7744 -84.6022 171° South 436 502 33,000  Level Atlanta Center
Mon 05:33:05 PM 32.6533 -84.5692 167° South 436 502 33,000  Level Atlanta Center
Mon 05:34:05 PM 32.5325 -84.5364 167° South 441 507 33,000  Level Atlanta Center
Mon 05:35:05 PM 32.4136 -84.5089 169° South 441 507 33,000  Level Atlanta Center
Mon 05:36:05 PM 32.2947 -84.4786 168° South 441 507 33,000  Level Atlanta Center
Mon 05:37:05 PM 32.1758 -84.4511 169° South 441 507 33,000  Level Atlanta Center
Mon 05:38:05 PM 32.0569 -84.4236 169° South 441 507 33,000  Level Atlanta Center
Mon 05:38:36 PM 32.0072 -84.4092 166° South 442 509 33,000  Level Jacksonville Center
Mon 05:39:36 PM 31.8886 -84.3803 168° South 442 509 33,000  Level Jacksonville Center
Mon 05:40:36 PM 31.7697 -84.3539 169° South 442 509 33,000  Level Jacksonville Center
Mon 05:41:36 PM 31.6489 -84.3250 168° South 442 509 33,000  Level Jacksonville Center
Mon 05:42:36 PM 31.5261 -84.2964 169° South 447 514 33,000  Level Jacksonville Center
Mon 05:43:36 PM 31.4075 -84.2678 168° South 447 514 33,000  Level Jacksonville Center
Mon 05:44:36 PM 31.2825 -84.2369 168° South 447 514 33,000  Level Jacksonville Center
Mon 05:45:36 PM 31.1597 -84.2083 169° South 452 520 33,000  Level Jacksonville Center
Mon 05:46:36 PM 31.0367 -84.1800 169° South 452 520 33,000  Level Jacksonville Center
Mon 05:47:36 PM 30.9158 -84.1517 169° South 452 520 33,000  Level Jacksonville Center
Mon 05:48:36 PM 30.7931 -84.1161 166° South 447 514 33,000  Level Jacksonville Center
Mon 05:49:36 PM 30.6725 -84.0711 162° South 452 520 33,000  Level Jacksonville Center
Mon 05:50:36 PM 30.5497 -84.0192 160° South 458 527 33,000  Level Jacksonville Center
Mon 05:51:36 PM 30.4247 -83.9719 162° South 453 521 33,000  Level Jacksonville Center
Mon 05:52:36 PM 30.3144 -83.9272 161° South 458 527 33,000  Level Jacksonville Center
Mon 05:53:36 PM 30.1939 -83.8850 163° South 458 527 33,000  Level Jacksonville Center
Mon 05:54:36 PM 30.0750 -83.8383 161° South 458 527 33,000  Level Jacksonville Center
Mon 05:55:36 PM 29.9522 -83.7892 161° South 463 533 33,000 -150 Level Jacksonville Center
Mon 05:56:36 PM 29.8314 -83.7450 162° South 463 533 32,700 -650 Descending Jacksonville Center
Mon 05:57:36 PM 29.7086 -83.6983 162° South 463 533 31,700 -1,000 Descending Jacksonville Center
Mon 05:58:36 PM 29.5878 -83.6519 162° South 463 533 30,700 -1,100 Descending Jacksonville Center
Mon 05:59:36 PM 29.4628 -83.6058 162° South 463 533 29,500 -1,200 Descending Jacksonville Center
Mon 06:00:36 PM 29.3400 -83.5572 161° South 463 533 28,300 -1,350 Descending Jacksonville Center
Mon 06:01:36 PM 29.2192 -83.5089 161° South 463 533 26,800 -1,750 Descending Jacksonville Center
Mon 06:02:36 PM 29.1025 -83.4414 153° Southeast 463 533 24,800 -1,400 Descending Jacksonville Center
Mon 06:03:36 PM 28.9964 -83.3697 149° Southeast 456 525 24,000 -1,350 Descending Jacksonville Center
Mon 06:04:36 PM 28.8839 -83.2956 150° Southeast 456 525 22,100 -2,250 Descending Jacksonville Center
Mon 06:05:36 PM 28.7778 -83.2314 152° Southeast 451 519 19,500 -2,500 Descending Jacksonville Center
Mon 06:06:36 PM 28.6714 -83.1669 152° Southeast 440 506 17,100 -2,389 Descending Jacksonville Center
Mon 06:07:29 PM 28.5833 -83.1167 153° Southeast 407 468 15,000 -2,400 Descending Tampa TRACON
Mon 06:07:41 PM 28.5667 -83.1000 139° Southeast 405 466 14,500 -1,750 Descending Tampa TRACON
Mon 06:08:41 PM 28.4667 -83.0333 150° Southeast 382 440 12,900 -800 Descending Tampa TRACON
Mon 06:09:41 PM 28.4000 -82.9833 147° Southeast 327 376 12,900 -250 Level Tampa TRACON
Mon 06:10:41 PM 28.3167 -82.9333 152° Southeast 301 346 12,400 -1,050 Descending Tampa TRACON
Mon 06:11:41 PM 28.2333 -82.9000 161° South 307 353 10,800 -1,900 Descending Tampa TRACON
Mon 06:12:41 PM 28.1667 -82.8333 139° Southeast 295 339 8,600 -1,950 Descending Tampa TRACON
Mon 06:13:41 PM 28.1167 -82.7833 139° Southeast 273 314 6,900 -1,762 Descending Tampa TRACON
Mon 06:14:47 PM 28.0500 -82.7333 146° Southeast 232 267 4,900 -1,750 Descending Tampa TRACON
Mon 06:15:41 PM 28.0500 -82.7667 270° West 202 232 3,400 -950 Descending Tampa TRACON
Mon 06:16:47 PM 28.1000 -82.7833 344° North 211 243 3,000 -381 Descending Tampa TRACON
Mon 06:17:47 PM 28.1000 -82.7333 90° East 191 220 2,600 -550 Descending Tampa TRACON
Mon 06:18:47 PM 28.0500 -82.7167 164° South 200 230 1,900 -600 Descending Tampa TRACON
Mon 06:19:47 PM 28.0000 -82.7000 164° South 190 219 1,400 -650 Descending Tampa TRACON
Mon 06:20:47 PM 27.9500 -82.7000 180° South 137 158 600 -800 Descending Tampa TRACON

Login

Don't have an account? Register now (free) for customized features, flight alerts, and more!